createdAt,value
2023-01-28T00:00:52.895Z,12.30
2023-01-28T00:03:20.324Z,14.32
2023-01-28T00:05:47.607Z,11.98
2023-01-28T00:08:14.975Z,13.43
2023-01-28T00:10:45.758Z,14.52
2023-01-28T00:13:14.881Z,15.40
2023-01-28T00:15:42.327Z,12.45
2023-01-28T00:18:09.698Z,14.75
2023-01-28T00:20:36.976Z,17.00
2023-01-28T00:23:04.270Z,13.25
2023-01-28T00:25:31.876Z,14.10
2023-01-28T00:27:59.260Z,13.43
2023-01-28T00:30:26.493Z,12.45
2023-01-28T00:32:55.206Z,14.00
2023-01-28T00:35:22.565Z,14.88
2023-01-28T00:37:49.877Z,12.77
2023-01-28T00:40:17.321Z,12.27
2023-01-28T00:42:44.574Z,14.63
2023-01-28T00:45:12.015Z,13.00
2023-01-28T00:47:39.315Z,14.18
2023-01-28T00:50:06.879Z,15.38
2023-01-28T00:52:34.125Z,14.68
2023-01-28T00:55:01.380Z,14.20
2023-01-28T00:57:28.648Z,14.05
2023-01-28T00:59:55.966Z,14.63
2023-01-28T01:02:23.321Z,15.38
2023-01-28T01:05:00.160Z,15.07
2023-01-28T01:07:43.780Z,15.73
2023-01-28T01:10:17.079Z,16.42
2023-01-28T01:12:44.481Z,16.17
2023-01-28T01:15:12.161Z,13.30
2023-01-28T01:17:40.539Z,13.77
2023-01-28T01:20:09.320Z,14.70
2023-01-28T01:22:37.574Z,13.38
2023-01-28T01:25:05.261Z,14.82
2023-01-28T01:27:33.049Z,11.95
2023-01-28T01:30:00.339Z,13.93
2023-01-28T01:32:31.694Z,13.98
2023-01-28T01:34:59.713Z,12.15
2023-01-28T01:37:27.081Z,10.70
2023-01-28T01:39:54.313Z,9.95
2023-01-28T01:42:21.783Z,10.27
2023-01-28T01:44:59.362Z,9.18
2023-01-28T01:47:32.742Z,10.75
2023-01-28T01:50:02.488Z,9.95
2023-01-28T01:52:33.664Z,7.90
2023-01-28T01:55:02.598Z,8.70
2023-01-28T01:57:31.670Z,6.90
2023-01-28T02:00:06.065Z,6.25
2023-01-28T02:02:43.497Z,7.03
2023-01-28T02:05:11.989Z,5.90
2023-01-28T02:07:39.997Z,7.65
2023-01-28T02:10:08.932Z,6.15
2023-01-28T02:12:37.642Z,5.05
2023-01-28T02:15:12.839Z,10.15
2023-01-28T02:17:42.236Z,8.63
2023-01-28T02:20:14.067Z,7.55
2023-01-28T02:22:59.769Z,8.23
2023-01-28T02:25:45.459Z,7.95
2023-01-28T02:28:25.095Z,6.65
2023-01-28T02:31:00.544Z,7.18
2023-01-28T02:33:28.118Z,6.43
2023-01-28T02:35:56.715Z,6.47
2023-01-28T02:38:27.703Z,5.43
2023-01-28T02:41:07.000Z,5.82
2023-01-28T02:46:28.355Z,5.55
2023-01-28T02:48:56.832Z,8.35
2023-01-28T02:51:29.800Z,7.20
2023-01-28T02:54:00.725Z,6.40
2023-01-28T02:56:47.244Z,7.00
2023-01-28T02:59:33.939Z,5.47
2023-01-28T03:02:05.478Z,7.53
2023-01-28T03:04:34.602Z,6.38
2023-01-28T03:07:04.339Z,6.38
2023-01-28T03:09:32.029Z,8.05
2023-01-28T03:12:20.524Z,6.40
2023-01-28T03:15:10.568Z,6.93
2023-01-28T03:18:03.116Z,7.20
2023-01-28T03:20:54.206Z,6.35
2023-01-28T03:23:42.741Z,7.10
2023-01-28T03:26:30.269Z,6.90
2023-01-28T03:29:20.940Z,6.22
2023-01-28T03:32:08.425Z,6.88
2023-01-28T03:34:54.758Z,8.23
2023-01-28T03:37:22.629Z,6.97
2023-01-28T03:40:08.031Z,7.82
2023-01-28T03:42:35.375Z,6.30
2023-01-28T03:45:22.583Z,7.47
2023-01-28T03:47:50.264Z,7.07
2023-01-28T03:50:17.636Z,6.43
2023-01-28T03:53:13.453Z,7.20
2023-01-28T03:55:53.030Z,6.75
2023-01-28T03:58:21.029Z,7.35
2023-01-28T04:00:48.602Z,6.63
2023-01-28T04:03:17.454Z,6.70
2023-01-28T04:06:14.575Z,7.03
2023-01-28T04:09:21.402Z,9.93
2023-01-28T04:11:58.559Z,6.57
2023-01-28T04:14:31.087Z,6.18
2023-01-28T04:17:10.464Z,6.53
2023-01-28T04:19:38.839Z,7.28
2023-01-28T04:22:08.484Z,6.88
2023-01-28T04:24:35.939Z,8.47
2023-01-28T04:27:03.244Z,8.25
2023-01-28T04:29:31.697Z,8.82
2023-01-28T04:32:11.276Z,6.97
2023-01-28T04:34:57.393Z,8.10
2023-01-28T04:37:50.593Z,8.00
2023-01-28T04:40:32.243Z,7.22
2023-01-28T04:43:07.872Z,9.35
2023-01-28T04:45:58.320Z,14.70
2023-01-28T04:48:41.345Z,7.20
2023-01-28T04:51:28.842Z,7.18
2023-01-28T04:54:08.922Z,7.93
2023-01-28T04:56:37.347Z,6.00
2023-01-28T04:59:05.063Z,8.13
2023-01-28T05:01:33.905Z,7.80
2023-01-28T05:04:05.522Z,7.70
2023-01-28T05:06:35.065Z,6.10
2023-01-28T05:09:07.968Z,5.63
2023-01-28T05:11:38.736Z,7.35
2023-01-28T05:14:06.769Z,7.18
2023-01-28T05:16:54.503Z,8.82
2023-01-28T05:19:21.857Z,8.70
2023-01-28T05:21:49.204Z,8.20
2023-01-28T05:24:39.552Z,6.80
2023-01-28T05:27:07.484Z,7.10
2023-01-28T05:29:34.855Z,7.90
2023-01-28T05:32:02.187Z,8.15
2023-01-28T05:34:31.643Z,9.52
2023-01-28T05:37:02.831Z,6.50
2023-01-28T05:39:36.838Z,8.63
2023-01-28T05:42:04.332Z,7.28
2023-01-28T05:44:33.879Z,8.52
2023-01-28T05:47:27.419Z,9.32
2023-01-28T05:50:06.744Z,6.70
2023-01-28T05:52:43.662Z,9.63
2023-01-28T05:55:20.908Z,8.90
2023-01-28T05:57:49.043Z,6.82
2023-01-28T06:00:18.905Z,7.28
2023-01-28T06:02:46.516Z,7.28
2023-01-28T06:07:45.444Z,9.45
2023-01-28T06:10:13.510Z,9.82
2023-01-28T06:12:41.235Z,8.73
2023-01-28T06:15:31.154Z,9.05
2023-01-28T06:18:17.762Z,9.32
2023-01-28T06:20:45.443Z,6.93
2023-01-28T06:23:12.729Z,9.27
2023-01-28T06:25:40.008Z,8.27
2023-01-28T06:28:11.085Z,8.25
2023-01-28T06:30:38.522Z,7.50
2023-01-28T06:33:06.571Z,9.65
2023-01-28T06:35:33.813Z,7.25
2023-01-28T06:38:01.083Z,7.28
2023-01-28T06:40:28.330Z,9.40
2023-01-28T06:42:55.523Z,8.40
2023-01-28T06:45:22.746Z,7.60
2023-01-28T06:47:50.047Z,7.55
2023-01-28T06:50:17.868Z,10.93
2023-01-28T06:52:45.298Z,7.70
2023-01-28T06:55:12.683Z,9.10
2023-01-28T06:57:40.451Z,7.70
2023-01-28T07:00:10.457Z,10.25
2023-01-28T07:02:37.977Z,9.43
2023-01-28T07:05:06.343Z,8.80
2023-01-28T07:07:34.016Z,8.43
2023-01-28T07:10:01.224Z,8.20
2023-01-28T07:12:28.480Z,9.23
2023-01-28T07:14:55.688Z,9.10
2023-01-28T07:17:22.980Z,9.88
2023-01-28T07:19:50.183Z,8.00
2023-01-28T07:22:17.428Z,8.38
2023-01-28T07:24:44.651Z,9.68
2023-01-28T07:27:11.877Z,7.72
2023-01-28T07:29:39.186Z,8.55
2023-01-28T07:32:07.351Z,7.05
2023-01-28T07:34:37.581Z,9.13
2023-01-28T07:37:04.893Z,8.10
2023-01-28T07:39:32.295Z,9.38
2023-01-28T07:41:59.532Z,8.85
2023-01-28T07:44:37.500Z,7.95
2023-01-28T07:47:05.394Z,12.23
2023-01-28T07:49:34.181Z,9.02
2023-01-28T07:52:01.488Z,8.55
2023-01-28T07:54:29.279Z,12.35
2023-01-28T07:56:56.541Z,9.20
2023-01-28T07:59:23.861Z,9.27
2023-01-28T08:01:52.546Z,9.13
2023-01-28T08:04:21.133Z,9.30
2023-01-28T08:06:48.700Z,9.45
2023-01-28T08:09:15.952Z,9.25
2023-01-28T08:11:43.199Z,8.43
2023-01-28T08:14:11.689Z,9.27
2023-01-28T08:16:38.928Z,8.13
2023-01-28T08:19:06.384Z,10.52
2023-01-28T08:21:33.698Z,10.70
2023-01-28T08:24:00.977Z,12.05
2023-01-28T08:26:28.332Z,9.32
2023-01-28T08:28:55.567Z,7.95
2023-01-28T08:31:22.912Z,9.57
2023-01-28T08:33:50.188Z,9.85
2023-01-28T08:36:17.401Z,10.45
2023-01-28T08:38:44.757Z,10.95
2023-01-28T08:41:11.973Z,11.25
2023-01-28T08:43:39.285Z,9.50
2023-01-28T08:46:07.780Z,10.05
2023-01-28T08:48:35.092Z,8.83
2023-01-28T08:51:02.408Z,12.00
2023-01-28T08:53:29.714Z,11.10
2023-01-28T08:55:56.910Z,11.45
2023-01-28T08:58:24.158Z,11.13
2023-01-28T09:00:51.462Z,11.02
2023-01-28T09:03:18.900Z,11.90
2023-01-28T09:05:46.261Z,8.55
2023-01-28T09:08:14.699Z,8.23
2023-01-28T09:10:42.249Z,7.33
2023-01-28T09:13:10.604Z,9.18
2023-01-28T09:15:38.230Z,7.80
2023-01-28T09:18:06.009Z,6.95
2023-01-28T09:20:33.417Z,11.38
2023-01-28T09:23:01.537Z,8.85
2023-01-28T09:25:28.825Z,6.53
2023-01-28T09:27:56.074Z,8.25
2023-01-28T09:30:23.587Z,7.22
2023-01-28T09:32:54.183Z,7.68
2023-01-28T09:35:21.470Z,6.70
2023-01-28T09:37:49.208Z,7.95
2023-01-28T09:40:20.297Z,6.60
2023-01-28T09:42:59.746Z,6.97
2023-01-28T09:45:33.820Z,10.13
2023-01-28T09:48:03.156Z,8.00
2023-01-28T09:53:01.374Z,8.73
2023-01-28T09:55:40.040Z,8.50
2023-01-28T09:58:11.389Z,6.78
2023-01-28T10:01:00.499Z,6.85
2023-01-28T10:05:55.405Z,7.05
2023-01-28T10:08:28.667Z,9.85
2023-01-28T10:11:14.815Z,6.05
2023-01-28T10:13:51.184Z,7.93
2023-01-28T10:16:29.258Z,5.53
2023-01-28T10:19:03.604Z,6.05
2023-01-28T10:21:35.412Z,6.03
2023-01-28T10:24:06.561Z,6.20
2023-01-28T10:26:36.377Z,6.28
2023-01-28T10:29:20.585Z,10.60
2023-01-28T10:32:08.060Z,5.45
2023-01-28T10:34:35.450Z,6.32
2023-01-28T10:37:02.724Z,6.97
2023-01-28T10:39:30.348Z,7.82
2023-01-28T10:41:58.840Z,7.82
2023-01-28T10:44:46.637Z,6.63
2023-01-28T10:47:16.177Z,8.38
2023-01-28T10:49:46.864Z,9.55
2023-01-28T10:52:15.640Z,7.43
2023-01-28T10:54:42.952Z,6.80
2023-01-28T10:57:19.742Z,6.75
2023-01-28T10:59:49.740Z,5.95
2023-01-28T11:02:27.699Z,6.38
2023-01-28T11:05:06.393Z,7.78
2023-01-28T11:07:34.140Z,6.10
2023-01-28T11:10:01.455Z,7.45
2023-01-28T11:12:30.179Z,6.95
2023-01-28T11:15:02.255Z,6.13
2023-01-28T11:17:31.700Z,6.20
2023-01-28T11:20:00.224Z,6.55
2023-01-28T11:22:38.255Z,8.73
2023-01-28T11:25:08.426Z,6.65
2023-01-28T11:27:35.675Z,6.72
2023-01-28T11:30:04.256Z,5.45
2023-01-28T11:32:31.794Z,7.72
2023-01-28T11:35:00.480Z,6.88
2023-01-28T11:37:28.818Z,6.82
2023-01-28T11:40:02.920Z,5.87
2023-01-28T11:42:31.807Z,8.10
2023-01-28T11:44:59.088Z,6.63
2023-01-28T11:47:32.318Z,5.10
2023-01-28T11:50:19.075Z,7.38
2023-01-28T11:53:06.378Z,6.07
2023-01-28T11:55:53.081Z,6.17
2023-01-28T11:58:24.141Z,5.85
2023-01-28T12:00:51.631Z,5.78
2023-01-28T12:03:28.070Z,5.70
2023-01-28T12:05:55.409Z,6.30
2023-01-28T12:08:27.776Z,5.85
2023-01-28T12:11:07.985Z,6.03
2023-01-28T12:13:43.872Z,6.65
2023-01-28T12:16:30.014Z,6.13
2023-01-28T12:18:57.298Z,6.47
2023-01-28T12:21:39.941Z,6.40
2023-01-28T12:24:25.807Z,6.78
2023-01-28T12:27:09.401Z,4.35
2023-01-28T12:29:49.849Z,6.30
2023-01-28T12:32:17.133Z,5.53
2023-01-28T12:35:03.202Z,8.82
2023-01-28T12:37:36.281Z,7.03
2023-01-28T12:40:26.449Z,6.18
2023-01-28T12:42:57.280Z,7.63
2023-01-28T12:45:40.976Z,6.97
2023-01-28T12:48:27.156Z,6.95
2023-01-28T12:50:58.558Z,7.03
2023-01-28T12:53:32.281Z,6.25
2023-01-28T12:56:04.065Z,6.18
2023-01-28T12:58:54.669Z,7.47
2023-01-28T13:01:25.315Z,4.57
2023-01-28T13:03:52.599Z,5.35
2023-01-28T13:06:24.226Z,7.75
2023-01-28T13:08:55.292Z,5.72
2023-01-28T13:11:23.535Z,8.00
2023-01-28T13:13:50.879Z,6.07
2023-01-28T13:16:21.275Z,6.03
2023-01-28T13:18:53.057Z,6.10
2023-01-28T13:21:27.893Z,5.72
2023-01-28T13:24:12.732Z,7.15
2023-01-28T13:26:43.634Z,5.45
2023-01-28T13:29:10.944Z,5.90
2023-01-28T13:31:39.662Z,6.05
2023-01-28T13:34:08.564Z,5.72
2023-01-28T13:36:40.800Z,7.40
2023-01-28T13:39:08.112Z,5.50
2023-01-28T13:41:43.110Z,6.78
2023-01-28T13:44:19.641Z,6.97
2023-01-28T13:46:47.114Z,7.22
2023-01-28T13:49:17.856Z,7.70
2023-01-28T13:51:51.616Z,7.13
2023-01-28T13:54:21.830Z,6.07
2023-01-28T13:57:08.503Z,8.02
2023-01-28T14:00:00.869Z,6.97
2023-01-28T14:02:41.054Z,9.38
2023-01-28T14:05:17.827Z,7.95
2023-01-28T14:08:14.385Z,6.97
2023-01-28T14:10:57.637Z,7.07
2023-01-28T14:13:45.206Z,7.35
2023-01-28T14:16:15.221Z,6.15
2023-01-28T14:18:44.179Z,7.82
2023-01-28T14:21:16.503Z,7.65
2023-01-28T14:23:51.885Z,7.50
2023-01-28T14:26:24.986Z,6.35
2023-01-28T14:29:11.111Z,7.65
2023-01-28T14:31:39.294Z,8.75
2023-01-28T14:34:22.037Z,8.30
2023-01-28T14:36:50.256Z,14.45
2023-01-28T14:39:18.839Z,12.07
2023-01-28T14:41:47.431Z,7.25
2023-01-28T14:44:35.064Z,9.73
2023-01-28T14:47:14.283Z,7.15
2023-01-28T14:52:18.494Z,8.48
2023-01-28T14:54:54.850Z,6.72
2023-01-28T14:57:25.218Z,7.32
2023-01-28T14:59:53.876Z,9.23
2023-01-28T15:02:28.864Z,7.70
2023-01-28T15:04:56.550Z,9.02
2023-01-28T15:07:25.375Z,9.55
2023-01-28T15:10:01.977Z,6.50
2023-01-28T15:12:30.092Z,6.93
2023-01-28T15:14:57.411Z,8.00
2023-01-28T15:17:28.593Z,8.73
2023-01-28T15:19:56.761Z,9.45
2023-01-28T15:22:26.386Z,6.07
2023-01-28T15:24:53.802Z,10.57
2023-01-28T15:27:25.069Z,9.88
2023-01-28T15:29:53.595Z,7.78
2023-01-28T15:32:25.152Z,6.87
2023-01-28T15:34:52.425Z,9.07
2023-01-28T15:37:20.501Z,7.22
2023-01-28T15:39:47.880Z,7.70
2023-01-28T15:42:19.745Z,9.13
2023-01-28T15:44:48.118Z,7.75
2023-01-28T15:47:24.430Z,11.15
2023-01-28T15:49:53.450Z,8.50
2023-01-28T15:52:21.474Z,7.68
2023-01-28T15:54:51.178Z,9.25
2023-01-28T15:57:18.602Z,8.40
2023-01-28T15:59:47.456Z,9.60
2023-01-28T16:02:19.269Z,8.52
2023-01-28T16:05:03.177Z,11.25
2023-01-28T16:07:33.303Z,7.47
2023-01-28T16:10:02.567Z,10.20
2023-01-28T16:14:57.170Z,9.77
2023-01-28T16:17:27.709Z,8.70
2023-01-28T16:20:02.505Z,10.05
2023-01-28T16:22:29.692Z,9.73
2023-01-28T16:24:56.984Z,8.95
2023-01-28T16:27:25.741Z,10.45
2023-01-28T16:29:53.020Z,8.65
2023-01-28T16:32:29.613Z,10.15
2023-01-28T16:34:57.172Z,12.80
2023-01-28T16:39:52.012Z,13.32
2023-01-28T16:42:19.377Z,11.98
2023-01-28T16:44:46.682Z,14.70
2023-01-28T16:47:13.998Z,19.85
2023-01-28T16:49:41.336Z,9.85
2023-01-28T16:52:08.629Z,22.48
2023-01-28T16:54:35.903Z,24.88
2023-01-28T16:57:03.225Z,29.58
2023-01-28T16:59:30.568Z,21.10
2023-01-28T17:01:57.791Z,29.25
2023-01-28T17:04:25.151Z,43.17
2023-01-28T17:06:53.296Z,27.80
2023-01-28T17:09:22.130Z,15.82
2023-01-28T17:11:49.425Z,17.58
2023-01-28T17:14:16.736Z,16.10
2023-01-28T17:16:43.995Z,13.57
2023-01-28T17:19:11.228Z,12.45
2023-01-28T17:21:38.482Z,27.77
2023-01-28T17:24:06.379Z,15.68
2023-01-28T17:26:35.353Z,12.43
2023-01-28T17:29:03.273Z,17.98
2023-01-28T17:31:30.664Z,16.90
2023-01-28T17:33:58.818Z,20.73
2023-01-28T17:36:26.714Z,14.13
2023-01-28T17:38:54.225Z,10.85
2023-01-28T17:41:21.807Z,12.38
2023-01-28T17:43:52.658Z,11.77
2023-01-28T17:46:20.361Z,11.48
2023-01-28T17:48:48.707Z,10.98
2023-01-28T17:51:19.715Z,11.43
2023-01-28T17:53:47.763Z,12.55
2023-01-28T17:56:19.531Z,11.82
2023-01-28T17:58:50.727Z,12.80
2023-01-28T18:01:18.084Z,11.82
2023-01-28T18:03:45.361Z,13.80
2023-01-28T18:06:12.657Z,12.30
2023-01-28T18:08:39.931Z,14.55
2023-01-28T18:11:08.998Z,13.45
2023-01-28T18:13:37.707Z,13.02
2023-01-28T18:16:05.770Z,17.98
2023-01-28T18:18:33.302Z,13.30
2023-01-28T18:21:01.544Z,14.38
2023-01-28T18:23:28.948Z,16.27
2023-01-28T18:25:57.320Z,14.57
2023-01-28T18:28:25.002Z,12.20
2023-01-28T18:30:52.611Z,13.75
2023-01-28T18:33:20.494Z,13.25
2023-01-28T18:35:47.938Z,14.48
2023-01-28T18:38:15.898Z,15.27
2023-01-28T18:40:47.216Z,27.17
2023-01-28T18:43:14.773Z,15.50
2023-01-28T18:45:44.512Z,15.43
2023-01-28T18:48:11.861Z,15.10
2023-01-28T18:50:39.125Z,13.23
2023-01-28T18:53:06.388Z,16.80
2023-01-28T18:55:33.907Z,13.32
2023-01-28T18:58:01.155Z,11.45
2023-01-28T19:00:28.402Z,13.60
2023-01-28T19:02:55.633Z,14.52
2023-01-28T19:05:23.055Z,16.05
2023-01-28T19:07:50.249Z,10.63
2023-01-28T19:10:19.510Z,9.52
2023-01-28T19:12:47.060Z,12.10
2023-01-28T19:15:14.707Z,14.60
2023-01-28T19:17:42.375Z,12.90
2023-01-28T19:20:10.118Z,16.23
2023-01-28T19:22:37.411Z,12.25
2023-01-28T19:25:05.522Z,11.93
2023-01-28T19:27:32.800Z,11.32
2023-01-28T19:30:00.108Z,14.77
2023-01-28T19:32:27.930Z,12.27
2023-01-28T19:34:55.330Z,10.85
2023-01-28T19:37:22.863Z,10.48
2023-01-28T19:39:50.120Z,10.27
2023-01-28T19:42:17.988Z,11.13
2023-01-28T19:44:45.337Z,13.45
2023-01-28T19:47:12.911Z,17.50
2023-01-28T19:49:40.226Z,15.23
2023-01-28T19:52:10.793Z,16.75
2023-01-28T19:54:38.020Z,14.50
2023-01-28T19:57:05.327Z,13.07
2023-01-28T19:59:32.646Z,12.10
2023-01-28T20:01:59.994Z,13.38
2023-01-28T20:04:27.231Z,15.73
2023-01-28T20:06:54.485Z,11.25
2023-01-28T20:09:21.815Z,12.63
2023-01-28T20:11:49.218Z,16.70
2023-01-28T20:14:18.023Z,11.65
2023-01-28T20:16:45.257Z,11.60
2023-01-28T20:19:14.598Z,14.20
2023-01-28T20:24:09.215Z,14.65
2023-01-28T20:26:38.201Z,13.63
2023-01-28T20:29:09.756Z,13.25
2023-01-28T20:31:37.203Z,15.05
2023-01-28T20:34:04.531Z,12.68
2023-01-28T20:36:31.829Z,13.65
2023-01-28T20:38:59.195Z,16.48
2023-01-28T20:41:27.507Z,14.45
2023-01-28T20:43:55.009Z,12.77
2023-01-28T20:46:31.933Z,14.32
2023-01-28T20:49:00.154Z,12.30
2023-01-28T20:51:29.037Z,14.35
2023-01-28T20:53:57.823Z,13.77
2023-01-28T20:56:25.930Z,9.98
2023-01-28T20:58:57.357Z,12.65
2023-01-28T21:01:26.201Z,15.07
2023-01-28T21:03:53.934Z,15.23
2023-01-28T21:06:21.374Z,13.65
2023-01-28T21:08:48.952Z,13.02
2023-01-28T21:11:16.284Z,14.73
2023-01-28T21:13:43.506Z,13.35
2023-01-28T21:16:10.783Z,14.02
2023-01-28T21:18:38.113Z,17.63
2023-01-28T21:21:10.553Z,13.80
2023-01-28T21:23:37.797Z,14.43
2023-01-28T21:26:05.947Z,16.55
2023-01-28T21:28:33.408Z,14.50
2023-01-28T21:31:15.735Z,15.00
2023-01-28T21:33:43.084Z,19.83
2023-01-28T21:36:14.774Z,15.25
2023-01-28T21:38:42.428Z,18.80
2023-01-28T21:41:10.146Z,19.35
2023-01-28T21:43:37.748Z,17.48
2023-01-28T21:46:05.222Z,19.67
2023-01-28T21:48:32.570Z,20.98
2023-01-28T21:51:25.134Z,22.05
2023-01-28T21:53:52.433Z,21.08
2023-01-28T21:56:19.666Z,19.83
2023-01-28T21:59:05.832Z,19.80
2023-01-28T22:01:33.110Z,23.42
2023-01-28T22:04:00.551Z,19.90
2023-01-28T22:06:28.013Z,18.73
2023-01-28T22:08:55.397Z,20.38
2023-01-28T22:11:22.805Z,19.23
2023-01-28T22:13:50.504Z,20.73
2023-01-28T22:16:18.917Z,25.40
2023-01-28T22:18:47.584Z,25.30
2023-01-28T22:21:14.948Z,18.80
2023-01-28T22:23:42.590Z,19.67
2023-01-28T22:26:09.816Z,18.17
2023-01-28T22:28:37.964Z,19.75
2023-01-28T22:31:06.702Z,23.95
2023-01-28T22:33:35.035Z,22.25
2023-01-28T22:36:02.587Z,21.05
2023-01-28T22:38:29.830Z,18.42
2023-01-28T22:40:57.122Z,20.48
2023-01-28T22:43:24.414Z,20.85
2023-01-28T22:45:58.299Z,18.42
2023-01-28T22:48:25.485Z,19.52
2023-01-28T22:50:52.888Z,18.45
2023-01-28T22:53:20.278Z,19.55
2023-01-28T22:55:51.134Z,19.95
2023-01-28T22:58:18.460Z,21.02
2023-01-28T23:00:45.743Z,21.42
2023-01-28T23:03:12.983Z,23.38
2023-01-28T23:05:40.278Z,26.05
2023-01-28T23:08:10.699Z,18.35
2023-01-28T23:10:38.712Z,19.92
2023-01-28T23:13:06.790Z,19.77
2023-01-28T23:15:53.166Z,21.42
2023-01-28T23:18:51.195Z,22.20
2023-01-28T23:21:39.188Z,22.05
2023-01-28T23:24:21.698Z,21.30
2023-01-28T23:26:53.194Z,18.02
2023-01-28T23:29:23.694Z,18.55
2023-01-28T23:31:52.620Z,20.85
2023-01-28T23:34:20.195Z,15.80
2023-01-28T23:36:48.577Z,19.42
2023-01-28T23:39:15.843Z,25.00
2023-01-28T23:41:43.064Z,20.35
2023-01-28T23:44:10.286Z,23.80
2023-01-28T23:46:40.135Z,23.30
2023-01-28T23:49:09.621Z,20.75
2023-01-28T23:51:36.844Z,16.90
2023-01-28T23:54:04.103Z,23.45
2023-01-28T23:56:31.309Z,24.55
2023-01-28T23:58:58.545Z,22.17
